sensor_id;sensor_type;location;lat;lon;timestamp;P1;durP1;ratioP1;P2;durP2;ratioP2
68089;SDS011;54880;50.986;6.990;2022-12-15T00:00:49;44.00;;;17.42;;
68089;SDS011;54880;50.986;6.990;2022-12-15T00:03:33;36.53;;;16.40;;
68089;SDS011;54880;50.986;6.990;2022-12-15T00:06:17;41.73;;;17.47;;
68089;SDS011;54880;50.986;6.990;2022-12-15T00:09:01;40.53;;;17.85;;
68089;SDS011;54880;50.986;6.990;2022-12-15T00:11:45;38.75;;;16.98;;
68089;SDS011;54880;50.986;6.990;2022-12-15T00:14:28;43.40;;;17.80;;
68089;SDS011;54880;50.986;6.990;2022-12-15T00:17:12;34.95;;;16.27;;
68089;SDS011;54880;50.986;6.990;2022-12-15T00:19:56;38.95;;;16.80;;
68089;SDS011;54880;50.986;6.990;2022-12-15T00:22:40;37.08;;;16.90;;
68089;SDS011;54880;50.986;6.990;2022-12-15T00:25:24;30.88;;;14.73;;
68089;SDS011;54880;50.986;6.990;2022-12-15T00:28:08;36.55;;;16.17;;
68089;SDS011;54880;50.986;6.990;2022-12-15T00:30:52;35.08;;;16.52;;
68089;SDS011;54880;50.986;6.990;2022-12-15T00:33:35;30.17;;;15.00;;
68089;SDS011;54880;50.986;6.990;2022-12-15T00:36:19;39.47;;;16.17;;
68089;SDS011;54880;50.986;6.990;2022-12-15T00:39:03;39.17;;;17.27;;
68089;SDS011;54880;50.986;6.990;2022-12-15T00:41:29;41.53;;;17.87;;
68089;SDS011;54880;50.986;6.990;2022-12-15T00:43:54;35.50;;;17.93;;
68089;SDS011;54880;50.986;6.990;2022-12-15T00:46:19;38.70;;;18.07;;
68089;SDS011;54880;50.986;6.990;2022-12-15T00:49:03;36.73;;;17.33;;
68089;SDS011;54880;50.986;6.990;2022-12-15T00:51:48;39.33;;;18.02;;
68089;SDS011;54880;50.986;6.990;2022-12-15T00:54:32;43.13;;;18.58;;
68089;SDS011;54880;50.986;6.990;2022-12-15T00:57:16;37.10;;;17.88;;
68089;SDS011;54880;50.986;6.990;2022-12-15T01:00:00;39.20;;;17.40;;
68089;SDS011;54880;50.986;6.990;2022-12-15T01:02:44;37.40;;;18.30;;
68089;SDS011;54880;50.986;6.990;2022-12-15T01:05:28;38.90;;;17.63;;
68089;SDS011;54880;50.986;6.990;2022-12-15T01:08:11;44.93;;;18.30;;
68089;SDS011;54880;50.986;6.990;2022-12-15T01:10:58;39.65;;;16.73;;
68089;SDS011;54880;50.986;6.990;2022-12-15T01:13:42;35.88;;;16.83;;
68089;SDS011;54880;50.986;6.990;2022-12-15T01:16:26;39.53;;;17.03;;
68089;SDS011;54880;50.986;6.990;2022-12-15T01:19:10;36.30;;;16.65;;
68089;SDS011;54880;50.986;6.990;2022-12-15T01:21:54;41.50;;;17.85;;
68089;SDS011;54880;50.986;6.990;2022-12-15T01:24:19;36.87;;;16.27;;
68089;SDS011;54880;50.986;6.990;2022-12-15T01:26:44;38.43;;;16.60;;
68089;SDS011;54880;50.986;6.990;2022-12-15T01:29:09;36.47;;;16.43;;
68089;SDS011;54880;50.986;6.990;2022-12-15T01:31:35;40.33;;;17.17;;
68089;SDS011;54880;50.986;6.990;2022-12-15T01:34:00;38.07;;;17.40;;
68089;SDS011;54880;50.986;6.990;2022-12-15T01:36:25;37.27;;;15.37;;
68089;SDS011;54880;50.986;6.990;2022-12-15T01:38:51;33.50;;;15.67;;
68089;SDS011;54880;50.986;6.990;2022-12-15T01:41:16;35.77;;;15.07;;
68089;SDS011;54880;50.986;6.990;2022-12-15T01:43:41;42.03;;;15.10;;
68089;SDS011;54880;50.986;6.990;2022-12-15T01:46:07;32.43;;;14.97;;
68089;SDS011;54880;50.986;6.990;2022-12-15T01:48:40;29.08;;;14.35;;
68089;SDS011;54880;50.986;6.990;2022-12-15T01:51:26;36.67;;;15.10;;
68089;SDS011;54880;50.986;6.990;2022-12-15T01:53:54;31.90;;;15.10;;
68089;SDS011;54880;50.986;6.990;2022-12-15T01:56:22;37.17;;;15.27;;
68089;SDS011;54880;50.986;6.990;2022-12-15T01:58:48;31.88;;;14.27;;
68089;SDS011;54880;50.986;6.990;2022-12-15T02:01:15;36.40;;;15.55;;
68089;SDS011;54880;50.986;6.990;2022-12-15T02:03:40;31.10;;;14.63;;
68089;SDS011;54880;50.986;6.990;2022-12-15T02:06:06;33.65;;;14.25;;
68089;SDS011;54880;50.986;6.990;2022-12-15T02:08:32;31.48;;;13.77;;
68089;SDS011;54880;50.986;6.990;2022-12-15T02:16:40;33.63;;;14.32;;
68089;SDS011;54880;50.986;6.990;2022-12-15T02:21:38;31.00;;;14.53;;
68089;SDS011;54880;50.986;6.990;2022-12-15T02:26:57;36.17;;;14.98;;
68089;SDS011;54880;50.986;6.990;2022-12-15T02:31:57;35.90;;;14.93;;
68089;SDS011;54880;50.986;6.990;2022-12-15T02:37:05;29.70;;;14.13;;
68089;SDS011;54880;50.986;6.990;2022-12-15T02:39:32;34.53;;;13.18;;
68089;SDS011;54880;50.986;6.990;2022-12-15T02:41:57;32.27;;;14.17;;
68089;SDS011;54880;50.986;6.990;2022-12-15T02:44:24;35.63;;;15.43;;
68089;SDS011;54880;50.986;6.990;2022-12-15T02:51:55;32.55;;;12.77;;
68089;SDS011;54880;50.986;6.990;2022-12-15T02:54:37;28.77;;;12.57;;
68089;SDS011;54880;50.986;6.990;2022-12-15T02:57:09;29.33;;;13.63;;
68089;SDS011;54880;50.986;6.990;2022-12-15T03:00:13;29.80;;;12.73;;
68089;SDS011;54880;50.986;6.990;2022-12-15T03:02:31;30.67;;;12.80;;
68089;SDS011;54880;50.986;6.990;2022-12-15T03:04:58;28.70;;;11.93;;
68089;SDS011;54880;50.986;6.990;2022-12-15T03:07:23;28.97;;;13.63;;
68089;SDS011;54880;50.986;6.990;2022-12-15T03:09:52;32.28;;;13.65;;
68089;SDS011;54880;50.986;6.990;2022-12-15T03:12:18;31.27;;;14.05;;
68089;SDS011;54880;50.986;6.990;2022-12-15T03:14:43;37.57;;;14.30;;
68089;SDS011;54880;50.986;6.990;2022-12-15T03:17:08;31.83;;;13.73;;
68089;SDS011;54880;50.986;6.990;2022-12-15T03:19:34;29.83;;;13.30;;
68089;SDS011;54880;50.986;6.990;2022-12-15T03:21:59;28.77;;;13.00;;
68089;SDS011;54880;50.986;6.990;2022-12-15T03:24:24;33.63;;;12.95;;
68089;SDS011;54880;50.986;6.990;2022-12-15T03:26:49;28.70;;;13.00;;
68089;SDS011;54880;50.986;6.990;2022-12-15T03:29:16;32.67;;;13.10;;
68089;SDS011;54880;50.986;6.990;2022-12-15T03:31:42;30.08;;;13.18;;
68089;SDS011;54880;50.986;6.990;2022-12-15T03:34:08;27.92;;;12.57;;
68089;SDS011;54880;50.986;6.990;2022-12-15T03:36:33;27.77;;;11.60;;
68089;SDS011;54880;50.986;6.990;2022-12-15T03:38:58;30.97;;;12.40;;
68089;SDS011;54880;50.986;6.990;2022-12-15T03:41:24;28.13;;;13.00;;
68089;SDS011;54880;50.986;6.990;2022-12-15T03:43:49;28.67;;;12.37;;
68089;SDS011;54880;50.986;6.990;2022-12-15T03:46:14;25.03;;;12.60;;
68089;SDS011;54880;50.986;6.990;2022-12-15T03:48:39;28.87;;;12.87;;
68089;SDS011;54880;50.986;6.990;2022-12-15T03:51:05;28.73;;;12.53;;
68089;SDS011;54880;50.986;6.990;2022-12-15T03:53:30;29.93;;;12.13;;
68089;SDS011;54880;50.986;6.990;2022-12-15T03:55:55;26.33;;;12.27;;
68089;SDS011;54880;50.986;6.990;2022-12-15T03:58:20;28.13;;;12.60;;
68089;SDS011;54880;50.986;6.990;2022-12-15T04:00:46;28.83;;;12.03;;
68089;SDS011;54880;50.986;6.990;2022-12-15T04:03:11;30.97;;;12.17;;
68089;SDS011;54880;50.986;6.990;2022-12-15T04:05:37;25.67;;;11.93;;
68089;SDS011;54880;50.986;6.990;2022-12-15T04:08:02;30.10;;;12.53;;
68089;SDS011;54880;50.986;6.990;2022-12-15T04:10:28;27.10;;;12.20;;
68089;SDS011;54880;50.986;6.990;2022-12-15T04:12:57;28.52;;;12.30;;
68089;SDS011;54880;50.986;6.990;2022-12-15T04:15:23;28.45;;;12.43;;
68089;SDS011;54880;50.986;6.990;2022-12-15T04:17:49;29.40;;;12.60;;
68089;SDS011;54880;50.986;6.990;2022-12-15T04:20:14;28.57;;;12.57;;
68089;SDS011;54880;50.986;6.990;2022-12-15T04:22:40;34.23;;;12.40;;
68089;SDS011;54880;50.986;6.990;2022-12-15T04:25:06;31.70;;;11.48;;
68089;SDS011;54880;50.986;6.990;2022-12-15T04:27:50;35.25;;;13.80;;
68089;SDS011;54880;50.986;6.990;2022-12-15T04:30:34;34.97;;;13.38;;
68089;SDS011;54880;50.986;6.990;2022-12-15T04:33:18;29.95;;;12.48;;
68089;SDS011;54880;50.986;6.990;2022-12-15T04:36:02;31.47;;;11.73;;
68089;SDS011;54880;50.986;6.990;2022-12-15T04:38:47;26.73;;;12.20;;
68089;SDS011;54880;50.986;6.990;2022-12-15T04:41:31;32.63;;;12.10;;
68089;SDS011;54880;50.986;6.990;2022-12-15T04:44:14;29.03;;;12.87;;
68089;SDS011;54880;50.986;6.990;2022-12-15T04:46:59;29.35;;;11.43;;
68089;SDS011;54880;50.986;6.990;2022-12-15T04:49:43;29.17;;;11.73;;
68089;SDS011;54880;50.986;6.990;2022-12-15T04:52:26;33.55;;;12.02;;
68089;SDS011;54880;50.986;6.990;2022-12-15T04:55:10;29.85;;;12.73;;
68089;SDS011;54880;50.986;6.990;2022-12-15T04:57:54;26.65;;;11.85;;
68089;SDS011;54880;50.986;6.990;2022-12-15T05:00:38;28.60;;;12.75;;
68089;SDS011;54880;50.986;6.990;2022-12-15T05:03:21;30.80;;;13.17;;
68089;SDS011;54880;50.986;6.990;2022-12-15T05:06:05;26.50;;;11.07;;
68089;SDS011;54880;50.986;6.990;2022-12-15T05:08:49;29.08;;;12.52;;
68089;SDS011;54880;50.986;6.990;2022-12-15T05:11:33;31.60;;;12.97;;
68089;SDS011;54880;50.986;6.990;2022-12-15T05:14:17;28.42;;;11.68;;
68089;SDS011;54880;50.986;6.990;2022-12-15T05:17:01;31.75;;;12.98;;
68089;SDS011;54880;50.986;6.990;2022-12-15T05:19:44;27.35;;;11.90;;
68089;SDS011;54880;50.986;6.990;2022-12-15T05:22:28;30.05;;;12.77;;
68089;SDS011;54880;50.986;6.990;2022-12-15T05:25:12;33.60;;;12.77;;
68089;SDS011;54880;50.986;6.990;2022-12-15T05:27:56;28.73;;;12.02;;
68089;SDS011;54880;50.986;6.990;2022-12-15T05:30:40;36.57;;;12.47;;
68089;SDS011;54880;50.986;6.990;2022-12-15T05:33:24;30.55;;;12.98;;
68089;SDS011;54880;50.986;6.990;2022-12-15T05:35:49;33.80;;;13.30;;
68089;SDS011;54880;50.986;6.990;2022-12-15T05:38:14;32.20;;;12.67;;
68089;SDS011;54880;50.986;6.990;2022-12-15T05:40:39;30.10;;;12.30;;
68089;SDS011;54880;50.986;6.990;2022-12-15T05:43:05;28.93;;;12.30;;
68089;SDS011;54880;50.986;6.990;2022-12-15T05:45:30;26.23;;;12.20;;
68089;SDS011;54880;50.986;6.990;2022-12-15T05:47:55;29.70;;;12.37;;
68089;SDS011;54880;50.986;6.990;2022-12-15T05:50:20;29.20;;;12.03;;
68089;SDS011;54880;50.986;6.990;2022-12-15T05:52:46;30.30;;;12.30;;
68089;SDS011;54880;50.986;6.990;2022-12-15T05:55:14;36.03;;;12.65;;
68089;SDS011;54880;50.986;6.990;2022-12-15T05:57:39;28.17;;;13.43;;
68089;SDS011;54880;50.986;6.990;2022-12-15T06:00:04;30.80;;;12.00;;
68089;SDS011;54880;50.986;6.990;2022-12-15T06:02:36;34.95;;;13.85;;
68089;SDS011;54880;50.986;6.990;2022-12-15T06:05:02;30.87;;;14.13;;
68089;SDS011;54880;50.986;6.990;2022-12-15T06:07:27;31.77;;;13.40;;
68089;SDS011;54880;50.986;6.990;2022-12-15T06:09:52;30.27;;;13.10;;
68089;SDS011;54880;50.986;6.990;2022-12-15T06:12:17;28.87;;;12.83;;
68089;SDS011;54880;50.986;6.990;2022-12-15T06:14:43;35.00;;;13.93;;
68089;SDS011;54880;50.986;6.990;2022-12-15T06:17:08;31.37;;;12.57;;
68089;SDS011;54880;50.986;6.990;2022-12-15T06:19:33;30.80;;;12.87;;
68089;SDS011;54880;50.986;6.990;2022-12-15T06:21:58;30.67;;;12.60;;
68089;SDS011;54880;50.986;6.990;2022-12-15T06:24:24;37.00;;;13.27;;
68089;SDS011;54880;50.986;6.990;2022-12-15T06:26:50;32.40;;;13.97;;
68089;SDS011;54880;50.986;6.990;2022-12-15T06:29:15;32.80;;;12.83;;
68089;SDS011;54880;50.986;6.990;2022-12-15T06:31:40;32.80;;;12.00;;
68089;SDS011;54880;50.986;6.990;2022-12-15T06:34:08;33.50;;;13.10;;
68089;SDS011;54880;50.986;6.990;2022-12-15T06:36:34;26.20;;;12.05;;
68089;SDS011;54880;50.986;6.990;2022-12-15T06:39:00;32.83;;;13.27;;
68089;SDS011;54880;50.986;6.990;2022-12-15T06:41:26;31.67;;;11.98;;
68089;SDS011;54880;50.986;6.990;2022-12-15T06:43:53;28.30;;;12.37;;
68089;SDS011;54880;50.986;6.990;2022-12-15T06:46:22;29.55;;;12.98;;
68089;SDS011;54880;50.986;6.990;2022-12-15T06:48:47;32.67;;;13.27;;
68089;SDS011;54880;50.986;6.990;2022-12-15T06:51:13;32.83;;;13.57;;
68089;SDS011;54880;50.986;6.990;2022-12-15T06:53:38;30.77;;;12.80;;
68089;SDS011;54880;50.986;6.990;2022-12-15T06:56:06;29.30;;;13.45;;
68089;SDS011;54880;50.986;6.990;2022-12-15T06:58:32;33.33;;;13.52;;
68089;SDS011;54880;50.986;6.990;2022-12-15T07:00:58;27.67;;;12.23;;
68089;SDS011;54880;50.986;6.990;2022-12-15T07:03:28;29.10;;;13.70;;
68089;SDS011;54880;50.986;6.990;2022-12-15T07:06:00;27.83;;;12.33;;
68089;SDS011;54880;50.986;6.990;2022-12-15T07:08:26;28.77;;;12.27;;
68089;SDS011;54880;50.986;6.990;2022-12-15T07:10:52;30.57;;;13.87;;
68089;SDS011;54880;50.986;6.990;2022-12-15T07:13:17;35.33;;;13.87;;
68089;SDS011;54880;50.986;6.990;2022-12-15T07:15:42;30.60;;;13.57;;
68089;SDS011;54880;50.986;6.990;2022-12-15T07:18:08;29.07;;;12.83;;
68089;SDS011;54880;50.986;6.990;2022-12-15T07:20:34;32.03;;;13.60;;
68089;SDS011;54880;50.986;6.990;2022-12-15T07:22:59;37.73;;;13.60;;
68089;SDS011;54880;50.986;6.990;2022-12-15T07:25:25;33.42;;;14.88;;
68089;SDS011;54880;50.986;6.990;2022-12-15T07:27:50;34.50;;;13.47;;
68089;SDS011;54880;50.986;6.990;2022-12-15T07:30:16;34.97;;;13.20;;
68089;SDS011;54880;50.986;6.990;2022-12-15T07:32:41;35.10;;;14.03;;
68089;SDS011;54880;50.986;6.990;2022-12-15T07:35:08;33.35;;;13.57;;
68089;SDS011;54880;50.986;6.990;2022-12-15T07:37:33;31.83;;;13.17;;
68089;SDS011;54880;50.986;6.990;2022-12-15T07:39:58;34.87;;;13.67;;
68089;SDS011;54880;50.986;6.990;2022-12-15T07:42:24;35.53;;;13.93;;
68089;SDS011;54880;50.986;6.990;2022-12-15T07:44:49;34.83;;;14.63;;
68089;SDS011;54880;50.986;6.990;2022-12-15T07:47:14;32.87;;;13.83;;
68089;SDS011;54880;50.986;6.990;2022-12-15T07:49:39;35.07;;;14.60;;
68089;SDS011;54880;50.986;6.990;2022-12-15T07:52:05;35.13;;;14.70;;
68089;SDS011;54880;50.986;6.990;2022-12-15T07:54:30;33.97;;;14.10;;
68089;SDS011;54880;50.986;6.990;2022-12-15T07:56:55;37.90;;;14.60;;
68089;SDS011;54880;50.986;6.990;2022-12-15T07:59:21;34.87;;;14.07;;
68089;SDS011;54880;50.986;6.990;2022-12-15T08:01:48;35.88;;;15.13;;
68089;SDS011;54880;50.986;6.990;2022-12-15T08:04:13;39.08;;;15.38;;
68089;SDS011;54880;50.986;6.990;2022-12-15T08:06:38;33.10;;;14.17;;
68089;SDS011;54880;50.986;6.990;2022-12-15T08:09:04;32.57;;;13.70;;
68089;SDS011;54880;50.986;6.990;2022-12-15T08:11:31;36.83;;;15.93;;
68089;SDS011;54880;50.986;6.990;2022-12-15T08:13:58;38.60;;;15.68;;
68089;SDS011;54880;50.986;6.990;2022-12-15T08:16:23;33.38;;;13.65;;
68089;SDS011;54880;50.986;6.990;2022-12-15T08:18:49;45.95;;;16.15;;
68089;SDS011;54880;50.986;6.990;2022-12-15T08:21:14;38.90;;;15.80;;
68089;SDS011;54880;50.986;6.990;2022-12-15T08:23:39;38.80;;;15.53;;
68089;SDS011;54880;50.986;6.990;2022-12-15T08:26:09;41.63;;;15.80;;
68089;SDS011;54880;50.986;6.990;2022-12-15T08:28:36;36.65;;;15.10;;
68089;SDS011;54880;50.986;6.990;2022-12-15T08:31:05;40.10;;;16.40;;
68089;SDS011;54880;50.986;6.990;2022-12-15T08:33:30;39.78;;;14.50;;
68089;SDS011;54880;50.986;6.990;2022-12-15T08:35:57;42.47;;;16.47;;
68089;SDS011;54880;50.986;6.990;2022-12-15T08:38:22;40.08;;;16.00;;
68089;SDS011;54880;50.986;6.990;2022-12-15T08:40:47;46.13;;;19.30;;
68089;SDS011;54880;50.986;6.990;2022-12-15T08:43:12;39.13;;;14.53;;
68089;SDS011;54880;50.986;6.990;2022-12-15T08:45:39;43.37;;;16.40;;
68089;SDS011;54880;50.986;6.990;2022-12-15T08:48:04;36.63;;;13.95;;
68089;SDS011;54880;50.986;6.990;2022-12-15T08:50:30;48.97;;;18.73;;
68089;SDS011;54880;50.986;6.990;2022-12-15T08:52:55;45.03;;;17.83;;
68089;SDS011;54880;50.986;6.990;2022-12-15T08:55:20;41.90;;;16.60;;
68089;SDS011;54880;50.986;6.990;2022-12-15T08:57:47;42.60;;;16.90;;
68089;SDS011;54880;50.986;6.990;2022-12-15T09:00:13;44.73;;;17.20;;
68089;SDS011;54880;50.986;6.990;2022-12-15T09:02:38;44.78;;;16.35;;
68089;SDS011;54880;50.986;6.990;2022-12-15T09:05:03;38.27;;;15.63;;
68089;SDS011;54880;50.986;6.990;2022-12-15T09:07:30;43.53;;;17.37;;
68089;SDS011;54880;50.986;6.990;2022-12-15T09:09:55;40.65;;;16.88;;
68089;SDS011;54880;50.986;6.990;2022-12-15T09:12:21;44.00;;;17.10;;
68089;SDS011;54880;50.986;6.990;2022-12-15T09:14:46;47.50;;;17.57;;
68089;SDS011;54880;50.986;6.990;2022-12-15T09:17:11;43.47;;;17.40;;
68089;SDS011;54880;50.986;6.990;2022-12-15T09:19:36;44.80;;;18.37;;
68089;SDS011;54880;50.986;6.990;2022-12-15T09:22:02;43.90;;;17.43;;
68089;SDS011;54880;50.986;6.990;2022-12-15T09:24:27;32.17;;;13.80;;
68089;SDS011;54880;50.986;6.990;2022-12-15T09:26:53;46.73;;;17.17;;
68089;SDS011;54880;50.986;6.990;2022-12-15T09:29:18;45.47;;;19.23;;
68089;SDS011;54880;50.986;6.990;2022-12-15T09:31:43;46.53;;;17.17;;
68089;SDS011;54880;50.986;6.990;2022-12-15T09:34:12;44.10;;;16.88;;
68089;SDS011;54880;50.986;6.990;2022-12-15T09:36:38;45.35;;;19.08;;
68089;SDS011;54880;50.986;6.990;2022-12-15T09:39:04;44.47;;;18.13;;
68089;SDS011;54880;50.986;6.990;2022-12-15T09:41:33;49.37;;;19.67;;
68089;SDS011;54880;50.986;6.990;2022-12-15T09:51:47;41.28;;;16.20;;
68089;SDS011;54880;50.986;6.990;2022-12-15T09:54:14;41.53;;;16.48;;
68089;SDS011;54880;50.986;6.990;2022-12-15T09:56:41;39.97;;;16.80;;
68089;SDS011;54880;50.986;6.990;2022-12-15T09:59:20;44.08;;;17.17;;
68089;SDS011;54880;50.986;6.990;2022-12-15T10:04:29;40.15;;;16.88;;
68089;SDS011;54880;50.986;6.990;2022-12-15T10:06:57;42.70;;;17.33;;
68089;SDS011;54880;50.986;6.990;2022-12-15T10:09:24;43.38;;;16.45;;
68089;SDS011;54880;50.986;6.990;2022-12-15T10:12:00;37.40;;;16.52;;
68089;SDS011;54880;50.986;6.990;2022-12-15T10:22:44;49.15;;;18.42;;
68089;SDS011;54880;50.986;6.990;2022-12-15T10:25:16;38.45;;;16.83;;
68089;SDS011;54880;50.986;6.990;2022-12-15T10:30:11;55.03;;;23.00;;
68089;SDS011;54880;50.986;6.990;2022-12-15T10:32:41;37.37;;;15.70;;
68089;SDS011;54880;50.986;6.990;2022-12-15T10:35:12;39.53;;;16.98;;
68089;SDS011;54880;50.986;6.990;2022-12-15T10:37:38;38.38;;;15.18;;
68089;SDS011;54880;50.986;6.990;2022-12-15T10:40:04;45.33;;;18.27;;
68089;SDS011;54880;50.986;6.990;2022-12-15T10:42:30;41.67;;;17.55;;
68089;SDS011;54880;50.986;6.990;2022-12-15T10:44:56;45.33;;;17.77;;
68089;SDS011;54880;50.986;6.990;2022-12-15T10:47:28;42.60;;;17.70;;
68089;SDS011;54880;50.986;6.990;2022-12-15T10:49:55;40.45;;;16.15;;
68089;SDS011;54880;50.986;6.990;2022-12-15T10:52:39;40.92;;;17.33;;
68089;SDS011;54880;50.986;6.990;2022-12-15T10:55:27;41.87;;;16.40;;
68089;SDS011;54880;50.986;6.990;2022-12-15T10:57:58;38.20;;;16.63;;
68089;SDS011;54880;50.986;6.990;2022-12-15T11:00:28;40.35;;;16.58;;
68089;SDS011;54880;50.986;6.990;2022-12-15T11:02:53;38.28;;;16.83;;
68089;SDS011;54880;50.986;6.990;2022-12-15T11:05:19;38.97;;;17.80;;
68089;SDS011;54880;50.986;6.990;2022-12-15T11:07:51;38.03;;;17.07;;
68089;SDS011;54880;50.986;6.990;2022-12-15T11:10:27;38.53;;;15.90;;
68089;SDS011;54880;50.986;6.990;2022-12-15T11:13:17;38.37;;;15.70;;
68089;SDS011;54880;50.986;6.990;2022-12-15T11:15:43;42.35;;;17.85;;
68089;SDS011;54880;50.986;6.990;2022-12-15T11:28:57;39.15;;;15.75;;
68089;SDS011;54880;50.986;6.990;2022-12-15T11:33:52;41.72;;;16.92;;
68089;SDS011;54880;50.986;6.990;2022-12-15T11:36:30;37.85;;;17.00;;
68089;SDS011;54880;50.986;6.990;2022-12-15T11:39:06;34.50;;;15.77;;
68089;SDS011;54880;50.986;6.990;2022-12-15T11:41:39;39.87;;;16.97;;
68089;SDS011;54880;50.986;6.990;2022-12-15T11:44:17;42.65;;;16.92;;
68089;SDS011;54880;50.986;6.990;2022-12-15T11:46:54;37.33;;;16.25;;
68089;SDS011;54880;50.986;6.990;2022-12-15T11:49:32;45.03;;;17.02;;
68089;SDS011;54880;50.986;6.990;2022-12-15T11:52:06;35.23;;;15.23;;
68089;SDS011;54880;50.986;6.990;2022-12-15T11:59:39;37.63;;;15.57;;
68089;SDS011;54880;50.986;6.990;2022-12-15T12:04:42;33.60;;;14.37;;
68089;SDS011;54880;50.986;6.990;2022-12-15T12:12:24;44.13;;;20.77;;
68089;SDS011;54880;50.986;6.990;2022-12-15T12:20:00;38.15;;;17.15;;
68089;SDS011;54880;50.986;6.990;2022-12-15T12:22:27;37.63;;;16.40;;
68089;SDS011;54880;50.986;6.990;2022-12-15T12:25:10;38.10;;;15.82;;
68089;SDS011;54880;50.986;6.990;2022-12-15T12:30:16;34.72;;;16.25;;
68089;SDS011;54880;50.986;6.990;2022-12-15T12:32:48;36.88;;;16.52;;
68089;SDS011;54880;50.986;6.990;2022-12-15T12:37:48;39.33;;;17.13;;
68089;SDS011;54880;50.986;6.990;2022-12-15T12:40:29;44.22;;;16.73;;
68089;SDS011;54880;50.986;6.990;2022-12-15T12:42:59;40.28;;;16.65;;
68089;SDS011;54880;50.986;6.990;2022-12-15T12:45:32;38.53;;;15.87;;
68089;SDS011;54880;50.986;6.990;2022-12-15T12:47:59;37.92;;;15.80;;
68089;SDS011;54880;50.986;6.990;2022-12-15T12:50:27;41.10;;;15.30;;
68089;SDS011;54880;50.986;6.990;2022-12-15T12:52:54;39.03;;;16.40;;
68089;SDS011;54880;50.986;6.990;2022-12-15T12:55:22;40.80;;;15.50;;
68089;SDS011;54880;50.986;6.990;2022-12-15T12:57:50;37.97;;;15.20;;
68089;SDS011;54880;50.986;6.990;2022-12-15T13:00:17;40.70;;;16.87;;
68089;SDS011;54880;50.986;6.990;2022-12-15T13:02:45;41.40;;;16.00;;
68089;SDS011;54880;50.986;6.990;2022-12-15T13:05:22;41.15;;;16.70;;
68089;SDS011;54880;50.986;6.990;2022-12-15T13:07:55;39.33;;;16.83;;
68089;SDS011;54880;50.986;6.990;2022-12-15T13:10:40;36.30;;;14.77;;
68089;SDS011;54880;50.986;6.990;2022-12-15T13:13:33;37.78;;;15.63;;
68089;SDS011;54880;50.986;6.990;2022-12-15T13:16:10;37.05;;;15.52;;
68089;SDS011;54880;50.986;6.990;2022-12-15T13:18:54;35.63;;;16.00;;
68089;SDS011;54880;50.986;6.990;2022-12-15T13:21:45;37.50;;;15.38;;
68089;SDS011;54880;50.986;6.990;2022-12-15T13:24:25;39.00;;;16.73;;
68089;SDS011;54880;50.986;6.990;2022-12-15T13:26:51;37.67;;;16.05;;
68089;SDS011;54880;50.986;6.990;2022-12-15T13:29:17;43.13;;;17.07;;
68089;SDS011;54880;50.986;6.990;2022-12-15T13:31:45;37.95;;;15.40;;
68089;SDS011;54880;50.986;6.990;2022-12-15T13:34:13;39.53;;;14.98;;
68089;SDS011;54880;50.986;6.990;2022-12-15T13:39:50;38.47;;;15.47;;
68089;SDS011;54880;50.986;6.990;2022-12-15T13:46:50;38.20;;;15.65;;
68089;SDS011;54880;50.986;6.990;2022-12-15T13:49:19;39.03;;;15.73;;
68089;SDS011;54880;50.986;6.990;2022-12-15T13:51:46;38.22;;;15.80;;
68089;SDS011;54880;50.986;6.990;2022-12-15T13:54:18;37.90;;;16.20;;
68089;SDS011;54880;50.986;6.990;2022-12-15T14:01:57;39.05;;;16.25;;
68089;SDS011;54880;50.986;6.990;2022-12-15T14:04:22;39.40;;;16.63;;
68089;SDS011;54880;50.986;6.990;2022-12-15T14:06:57;41.23;;;17.20;;
68089;SDS011;54880;50.986;6.990;2022-12-15T14:09:28;43.28;;;16.80;;
68089;SDS011;54880;50.986;6.990;2022-12-15T14:11:54;38.05;;;16.77;;
68089;SDS011;54880;50.986;6.990;2022-12-15T14:14:22;42.67;;;17.00;;
68089;SDS011;54880;50.986;6.990;2022-12-15T14:16:50;41.13;;;16.83;;
68089;SDS011;54880;50.986;6.990;2022-12-15T14:19:17;44.13;;;17.20;;
68089;SDS011;54880;50.986;6.990;2022-12-15T14:24:41;42.17;;;16.50;;
68089;SDS011;54880;50.986;6.990;2022-12-15T14:27:07;38.65;;;15.90;;
68089;SDS011;54880;50.986;6.990;2022-12-15T14:29:32;44.00;;;17.40;;
68089;SDS011;54880;50.986;6.990;2022-12-15T14:31:58;41.90;;;16.87;;
68089;SDS011;54880;50.986;6.990;2022-12-15T14:34:28;43.50;;;18.03;;
68089;SDS011;54880;50.986;6.990;2022-12-15T14:36:56;42.97;;;18.23;;
68089;SDS011;54880;50.986;6.990;2022-12-15T14:39:25;43.03;;;16.52;;
68089;SDS011;54880;50.986;6.990;2022-12-15T14:41:51;46.75;;;17.83;;
68089;SDS011;54880;50.986;6.990;2022-12-15T14:44:21;39.35;;;16.95;;
68089;SDS011;54880;50.986;6.990;2022-12-15T14:46:49;42.10;;;17.15;;
68089;SDS011;54880;50.986;6.990;2022-12-15T14:49:37;42.33;;;16.87;;
68089;SDS011;54880;50.986;6.990;2022-12-15T14:52:04;46.28;;;17.33;;
68089;SDS011;54880;50.986;6.990;2022-12-15T14:54:31;42.43;;;16.73;;
68089;SDS011;54880;50.986;6.990;2022-12-15T14:56:58;42.95;;;18.08;;
68089;SDS011;54880;50.986;6.990;2022-12-15T14:59:28;45.30;;;18.20;;
68089;SDS011;54880;50.986;6.990;2022-12-15T15:02:00;49.20;;;20.90;;
68089;SDS011;54880;50.986;6.990;2022-12-15T15:04:30;49.83;;;19.77;;
68089;SDS011;54880;50.986;6.990;2022-12-15T15:06:56;46.95;;;21.10;;
68089;SDS011;54880;50.986;6.990;2022-12-15T15:09:23;43.88;;;19.58;;
68089;SDS011;54880;50.986;6.990;2022-12-15T15:11:50;51.97;;;22.67;;
68089;SDS011;54880;50.986;6.990;2022-12-15T15:14:20;43.77;;;20.57;;
68089;SDS011;54880;50.986;6.990;2022-12-15T15:16:57;48.90;;;19.45;;
68089;SDS011;54880;50.986;6.990;2022-12-15T15:19:23;47.90;;;20.40;;
68089;SDS011;54880;50.986;6.990;2022-12-15T15:21:48;44.77;;;19.07;;
68089;SDS011;54880;50.986;6.990;2022-12-15T15:26:39;49.37;;;18.10;;
68089;SDS011;54880;50.986;6.990;2022-12-15T15:31:51;47.23;;;20.97;;
68089;SDS011;54880;50.986;6.990;2022-12-15T15:34:16;48.00;;;20.35;;
68089;SDS011;54880;50.986;6.990;2022-12-15T15:36:42;43.47;;;19.60;;
68089;SDS011;54880;50.986;6.990;2022-12-15T15:39:11;41.47;;;17.77;;
68089;SDS011;54880;50.986;6.990;2022-12-15T15:41:37;49.25;;;18.70;;
68089;SDS011;54880;50.986;6.990;2022-12-15T15:44:04;38.63;;;16.83;;
68089;SDS011;54880;50.986;6.990;2022-12-15T15:46:33;40.40;;;17.83;;
68089;SDS011;54880;50.986;6.990;2022-12-15T15:49:00;48.70;;;19.42;;
68089;SDS011;54880;50.986;6.990;2022-12-15T15:51:27;42.97;;;18.48;;
68089;SDS011;54880;50.986;6.990;2022-12-15T15:53:52;42.35;;;17.55;;
68089;SDS011;54880;50.986;6.990;2022-12-15T15:56:18;43.53;;;16.47;;
68089;SDS011;54880;50.986;6.990;2022-12-15T15:58:45;41.25;;;18.77;;
68089;SDS011;54880;50.986;6.990;2022-12-15T16:01:10;48.23;;;19.03;;
68089;SDS011;54880;50.986;6.990;2022-12-15T16:03:36;44.60;;;18.80;;
68089;SDS011;54880;50.986;6.990;2022-12-15T16:06:01;41.00;;;17.73;;
68089;SDS011;54880;50.986;6.990;2022-12-15T16:08:28;39.17;;;17.77;;
68089;SDS011;54880;50.986;6.990;2022-12-15T16:10:55;47.38;;;16.88;;
68089;SDS011;54880;50.986;6.990;2022-12-15T16:13:20;40.70;;;16.43;;
68089;SDS011;54880;50.986;6.990;2022-12-15T16:15:46;39.80;;;16.70;;
68089;SDS011;54880;50.986;6.990;2022-12-15T16:18:12;38.60;;;16.80;;